createdAt,value
2024-04-22T00:02:07.860Z,89.16
2024-04-22T00:04:35.479Z,89.66
2024-04-22T00:07:02.051Z,89.81
2024-04-22T00:09:28.690Z,89.64
2024-04-22T00:11:55.382Z,89.97
2024-04-22T00:14:22.017Z,90.00
2024-04-22T00:16:48.698Z,90.19
2024-04-22T00:19:15.381Z,90.32
2024-04-22T00:21:42.113Z,90.45
2024-04-22T00:24:08.839Z,90.52
2024-04-22T00:26:35.669Z,90.41
2024-04-22T00:29:02.455Z,90.71
2024-04-22T00:31:29.243Z,90.37
2024-04-22T00:33:55.915Z,90.85
2024-04-22T00:36:22.539Z,91.18
2024-04-22T00:38:49.254Z,91.04
2024-04-22T00:41:15.966Z,91.50
2024-04-22T00:43:42.728Z,91.35
2024-04-22T00:46:09.781Z,91.32
2024-04-22T00:48:37.221Z,91.19
2024-04-22T00:51:04.519Z,91.46
2024-04-22T00:53:32.300Z,91.54
2024-04-22T00:55:59.869Z,91.26
2024-04-22T00:58:27.998Z,91.15
2024-04-22T01:00:57.570Z,91.52
2024-04-22T01:03:24.796Z,91.63
2024-04-22T01:05:51.936Z,91.49
2024-04-22T01:08:18.578Z,91.51
2024-04-22T01:10:45.576Z,91.45
2024-04-22T01:13:12.328Z,91.37
2024-04-22T01:15:39.086Z,91.83
2024-04-22T01:18:05.920Z,92.03
2024-04-22T01:20:32.615Z,91.33
2024-04-22T01:22:59.240Z,92.03
2024-04-22T01:25:29.449Z,91.68
2024-04-22T01:27:56.330Z,91.61
2024-04-22T01:30:22.972Z,91.16
2024-04-22T01:32:49.715Z,91.21
2024-04-22T01:35:16.662Z,91.62
2024-04-22T01:37:43.331Z,91.32
2024-04-22T01:40:10.315Z,91.53
2024-04-22T01:42:37.059Z,91.53
2024-04-22T01:45:03.982Z,91.64
2024-04-22T01:47:30.740Z,91.85
2024-04-22T01:49:57.509Z,92.13
2024-04-22T01:52:24.182Z,91.85
2024-04-22T01:54:50.829Z,91.92
2024-04-22T01:57:17.493Z,92.24
2024-04-22T01:59:44.182Z,92.30
2024-04-22T02:02:11.035Z,92.05
2024-04-22T02:04:37.756Z,92.31
2024-04-22T02:07:04.554Z,92.54
2024-04-22T02:09:31.215Z,92.26
2024-04-22T02:11:57.819Z,92.44
2024-04-22T02:14:24.489Z,92.51
2024-04-22T02:16:51.217Z,92.92
2024-04-22T02:19:17.975Z,93.00
2024-04-22T02:21:44.605Z,92.79
2024-04-22T02:24:11.259Z,92.86
2024-04-22T02:26:37.835Z,92.52
2024-04-22T02:29:04.439Z,92.68
2024-04-22T02:31:31.320Z,92.98
2024-04-22T02:33:58.056Z,92.67
2024-04-22T02:36:24.707Z,92.78
2024-04-22T02:38:51.328Z,92.39
2024-04-22T02:41:17.934Z,92.41
2024-04-22T02:43:44.687Z,92.43
2024-04-22T02:46:11.417Z,92.61
2024-04-22T02:48:38.223Z,92.74
2024-04-22T02:51:05.184Z,92.44
2024-04-22T02:53:31.879Z,92.63
2024-04-22T02:55:58.571Z,92.48
2024-04-22T02:58:25.265Z,92.58
2024-04-22T03:00:55.535Z,93.04
2024-04-22T03:03:23.233Z,92.67
2024-04-22T03:05:50.162Z,92.64
2024-04-22T03:08:16.871Z,93.03
2024-04-22T03:10:43.702Z,92.94
2024-04-22T03:13:10.840Z,92.86
2024-04-22T03:15:38.159Z,92.77
2024-04-22T03:18:05.362Z,93.01
2024-04-22T03:20:32.638Z,93.10
2024-04-22T03:22:59.307Z,93.12
2024-04-22T03:25:25.995Z,92.92
2024-04-22T03:27:52.781Z,93.11
2024-04-22T03:30:19.454Z,92.96
2024-04-22T03:32:46.403Z,93.19
2024-04-22T03:35:13.147Z,93.29
2024-04-22T03:37:40.002Z,93.19
2024-04-22T03:40:07.773Z,93.43
2024-04-22T03:42:34.491Z,93.15
2024-04-22T03:45:01.206Z,93.64
2024-04-22T03:47:46.508Z,93.29
2024-04-22T03:50:13.283Z,93.44
2024-04-22T03:52:40.140Z,93.57
2024-04-22T03:55:07.034Z,93.66
2024-04-22T03:57:33.660Z,93.39
2024-04-22T04:00:00.370Z,93.19
2024-04-22T04:02:28.296Z,93.30
2024-04-22T04:04:55.288Z,93.11
2024-04-22T04:07:22.100Z,92.83
2024-04-22T04:09:48.954Z,93.07
2024-04-22T04:12:15.623Z,93.11
2024-04-22T04:14:42.357Z,92.61
2024-04-22T04:17:09.082Z,92.54
2024-04-22T04:19:35.918Z,92.99
2024-04-22T04:22:02.671Z,92.75
2024-04-22T04:24:29.390Z,93.16
2024-04-22T04:26:56.250Z,93.37
2024-04-22T04:29:22.982Z,92.93
2024-04-22T04:31:49.804Z,93.23
2024-04-22T04:34:16.510Z,93.51
2024-04-22T04:36:43.137Z,93.79
2024-04-22T04:39:10.571Z,93.92
2024-04-22T04:41:37.385Z,94.00
2024-04-22T04:44:04.068Z,93.52
2024-04-22T04:46:30.863Z,93.74
2024-04-22T04:48:57.531Z,93.77
2024-04-22T04:51:24.188Z,94.09
2024-04-22T04:53:51.032Z,93.98
2024-04-22T04:56:17.668Z,93.98
2024-04-22T04:58:44.359Z,94.34
2024-04-22T05:01:11.212Z,94.53
2024-04-22T05:03:38.079Z,94.40
2024-04-22T05:06:05.118Z,94.51
2024-04-22T05:08:31.767Z,95.13
2024-04-22T05:11:03.966Z,94.96
2024-04-22T05:13:30.719Z,95.10
2024-04-22T05:15:57.436Z,95.72
2024-04-22T05:18:24.118Z,95.40
2024-04-22T05:20:51.609Z,95.77
2024-04-22T05:23:18.363Z,96.11
2024-04-22T05:25:45.087Z,96.13
2024-04-22T05:28:11.834Z,95.98
2024-04-22T05:30:38.482Z,96.75
2024-04-22T05:33:27.836Z,96.77
2024-04-22T05:36:13.439Z,96.65
2024-04-22T05:38:41.268Z,96.89
2024-04-22T05:41:08.246Z,96.56
2024-04-22T05:43:34.941Z,96.86
2024-04-22T05:46:03.409Z,96.91
2024-04-22T05:48:30.971Z,96.87
2024-04-22T05:50:57.999Z,96.62
2024-04-22T05:53:24.636Z,96.18
2024-04-22T05:55:51.347Z,96.17
2024-04-22T05:58:18.009Z,95.80
2024-04-22T06:00:45.228Z,95.87
2024-04-22T06:03:11.969Z,96.12
2024-04-22T06:05:38.629Z,96.21
2024-04-22T06:08:05.716Z,96.53
2024-04-22T06:10:32.526Z,96.81
2024-04-22T06:12:59.294Z,96.61
2024-04-22T06:15:26.027Z,96.86
2024-04-22T06:17:52.681Z,96.76
2024-04-22T06:20:19.431Z,96.99
2024-04-22T06:22:46.228Z,96.80
2024-04-22T06:25:13.858Z,96.16
2024-04-22T06:27:41.310Z,96.27
2024-04-22T06:30:08.292Z,96.31
2024-04-22T06:32:37.129Z,96.41
2024-04-22T06:35:04.327Z,96.37
2024-04-22T06:37:31.085Z,97.13
2024-04-22T06:39:57.774Z,97.03
2024-04-22T06:42:24.509Z,97.08
2024-04-22T06:44:51.528Z,96.68
2024-04-22T06:47:18.748Z,96.68
2024-04-22T06:49:45.499Z,96.84
2024-04-22T06:52:12.213Z,96.89
2024-04-22T06:54:38.967Z,96.84
2024-04-22T06:57:05.733Z,96.92
2024-04-22T06:59:32.507Z,97.14
2024-04-22T07:01:59.219Z,96.53
2024-04-22T07:04:26.050Z,96.69
2024-04-22T07:06:52.733Z,96.40
2024-04-22T07:09:19.435Z,96.89
2024-04-22T07:11:46.002Z,96.54
2024-04-22T07:14:12.881Z,96.31
2024-04-22T07:16:45.772Z,96.07
2024-04-22T07:19:15.993Z,95.68
2024-04-22T07:21:42.778Z,94.42
2024-04-22T07:24:09.383Z,93.91
2024-04-22T07:26:36.090Z,93.58
2024-04-22T07:29:03.120Z,92.46
2024-04-22T07:31:30.074Z,91.69
2024-04-22T07:33:57.616Z,91.06
2024-04-22T07:36:46.894Z,91.34
2024-04-22T07:39:18.516Z,90.90
2024-04-22T07:41:45.263Z,90.73
2024-04-22T07:44:11.947Z,90.56
2024-04-22T07:46:38.649Z,90.30
2024-04-22T07:49:05.474Z,90.68
2024-04-22T07:51:32.167Z,90.75
2024-04-22T07:53:59.722Z,90.15
2024-04-22T07:56:26.638Z,89.25
2024-04-22T07:58:53.567Z,88.56
2024-04-22T08:01:20.799Z,88.22
2024-04-22T08:03:47.790Z,87.39
2024-04-22T08:06:19.358Z,87.28
2024-04-22T08:08:46.424Z,86.69
2024-04-22T08:11:13.493Z,85.94
2024-04-22T08:13:40.697Z,84.32
2024-04-22T08:16:07.564Z,83.82
2024-04-22T08:18:35.021Z,83.98
2024-04-22T08:21:03.463Z,83.76
2024-04-22T08:23:31.456Z,83.04
2024-04-22T08:25:58.150Z,83.59
2024-04-22T08:28:25.827Z,83.55
2024-04-22T08:31:03.662Z,83.41
2024-04-22T08:33:30.461Z,83.83
2024-04-22T08:35:58.143Z,82.49
2024-04-22T08:38:25.026Z,81.58
2024-04-22T08:40:52.358Z,81.82
2024-04-22T08:43:19.279Z,82.42
2024-04-22T08:45:46.452Z,82.17
2024-04-22T08:48:14.154Z,81.65
2024-04-22T08:50:42.194Z,80.40
2024-04-22T08:53:10.970Z,79.59
2024-04-22T08:55:38.795Z,78.27
2024-04-22T08:58:06.243Z,76.98
2024-04-22T09:00:33.164Z,75.76
2024-04-22T09:03:00.211Z,74.97
2024-04-22T09:05:27.225Z,74.01
2024-04-22T09:07:55.407Z,69.50
2024-04-22T09:10:55.659Z,68.05
2024-04-22T09:13:12.285Z,66.15
2024-04-22T09:15:39.290Z,63.41
2024-04-22T09:18:12.622Z,63.45
2024-04-22T09:20:39.280Z,63.57
2024-04-22T09:23:06.459Z,66.46
2024-04-22T09:25:33.338Z,68.43
2024-04-22T09:28:01.511Z,67.50
2024-04-22T09:30:39.459Z,68.22
2024-04-22T09:33:09.985Z,67.97
2024-04-22T09:35:38.739Z,68.83
2024-04-22T09:38:05.866Z,72.46
2024-04-22T09:40:33.460Z,74.71
2024-04-22T09:43:00.772Z,77.36
2024-04-22T09:45:27.551Z,77.97
2024-04-22T09:47:55.059Z,77.39
2024-04-22T09:50:22.021Z,77.67
2024-04-22T09:52:50.059Z,78.38
2024-04-22T09:55:18.110Z,78.84
2024-04-22T09:57:48.425Z,79.92
2024-04-22T10:00:17.440Z,83.12
2024-04-22T10:05:43.136Z,84.45
2024-04-22T10:08:11.371Z,84.78
2024-04-22T10:10:42.305Z,85.83
2024-04-22T10:13:11.242Z,84.63
2024-04-22T10:15:38.147Z,83.16
2024-04-22T10:18:13.894Z,81.25
2024-04-22T10:20:42.111Z,80.23
2024-04-22T10:23:09.367Z,77.87
2024-04-22T10:25:36.006Z,77.96
2024-04-22T10:28:02.667Z,72.91
2024-04-22T10:30:47.526Z,72.76
2024-04-22T10:33:14.263Z,67.02
2024-04-22T10:35:40.940Z,69.95
2024-04-22T10:38:08.211Z,67.08
2024-04-22T10:40:34.961Z,67.54
2024-04-22T10:43:01.716Z,69.82
2024-04-22T10:45:28.618Z,65.21
2024-04-22T10:48:05.287Z,62.80
2024-04-22T10:50:43.822Z,63.34
2024-04-22T10:53:10.630Z,61.32
2024-04-22T10:55:37.545Z,62.84
2024-04-22T10:58:04.602Z,62.06
2024-04-22T11:00:32.618Z,63.28
2024-04-22T11:03:04.086Z,61.79
2024-04-22T11:05:35.463Z,59.53
2024-04-22T11:08:03.221Z,61.77
2024-04-22T11:10:37.884Z,58.99
2024-04-22T11:13:10.106Z,58.06
2024-04-22T11:15:37.051Z,58.91
2024-04-22T11:18:10.320Z,57.74
2024-04-22T11:20:38.740Z,56.36
2024-04-22T11:23:06.299Z,54.38
2024-04-22T11:25:33.335Z,55.25
2024-04-22T11:28:01.216Z,53.11
2024-04-22T11:30:29.307Z,54.64
2024-04-22T11:32:56.261Z,54.16
2024-04-22T11:35:23.788Z,55.01
2024-04-22T11:37:53.634Z,55.37
2024-04-22T11:40:20.350Z,55.80
2024-04-22T11:42:46.996Z,55.88
2024-04-22T11:45:14.027Z,55.42
2024-04-22T11:47:41.012Z,56.16
2024-04-22T11:50:07.871Z,55.44
2024-04-22T11:52:34.791Z,55.29
2024-04-22T11:55:01.545Z,55.51
2024-04-22T11:57:28.248Z,54.99
2024-04-22T11:59:55.012Z,54.92
2024-04-22T12:02:21.728Z,54.88
2024-04-22T12:04:48.514Z,55.01
2024-04-22T12:07:15.378Z,55.92
2024-04-22T12:09:42.115Z,55.44
2024-04-22T12:12:09.054Z,53.09
2024-04-22T12:14:36.020Z,51.32
2024-04-22T12:17:05.570Z,52.97
2024-04-22T12:19:32.332Z,50.71
2024-04-22T12:21:58.978Z,48.86
2024-04-22T12:24:25.713Z,48.64
2024-04-22T12:26:52.350Z,49.36
2024-04-22T12:29:19.018Z,48.51
2024-04-22T12:31:45.801Z,48.27
2024-04-22T12:34:13.899Z,48.59
2024-04-22T12:36:41.850Z,47.67
2024-04-22T12:39:08.657Z,46.95
2024-04-22T12:41:35.572Z,44.34
2024-04-22T12:44:04.186Z,44.48
2024-04-22T12:46:53.377Z,44.16
2024-04-22T12:49:38.752Z,45.27
2024-04-22T12:52:05.761Z,45.27
2024-04-22T12:54:33.233Z,45.55
2024-04-22T12:56:59.905Z,44.84
2024-04-22T12:59:26.482Z,44.44
2024-04-22T13:01:53.695Z,42.84
2024-04-22T13:04:21.118Z,41.72
2024-04-22T13:06:47.779Z,42.77
2024-04-22T13:09:14.710Z,43.68
2024-04-22T13:11:41.760Z,42.73
2024-04-22T13:14:08.455Z,43.18
2024-04-22T13:16:35.290Z,43.91
2024-04-22T13:19:04.435Z,42.31
2024-04-22T13:21:33.096Z,43.86
2024-04-22T13:24:00.749Z,42.98
2024-04-22T13:26:27.485Z,42.37
2024-04-22T13:28:54.136Z,41.43
2024-04-22T13:31:20.996Z,41.82
2024-04-22T13:33:47.714Z,43.28
2024-04-22T13:36:14.452Z,43.13
2024-04-22T13:38:41.132Z,43.74
2024-04-22T13:41:07.833Z,42.88
2024-04-22T13:43:34.578Z,41.23
2024-04-22T13:46:01.294Z,42.38
2024-04-22T13:48:28.016Z,42.25
2024-04-22T13:50:55.258Z,41.89
2024-04-22T13:53:26.840Z,41.64
2024-04-22T13:55:59.563Z,41.90
2024-04-22T13:58:27.015Z,42.03
2024-04-22T14:00:54.055Z,41.91
2024-04-22T14:03:20.794Z,42.34
2024-04-22T14:05:47.520Z,40.55
2024-04-22T14:08:14.153Z,41.33
2024-04-22T14:10:40.956Z,41.18
2024-04-22T14:13:07.865Z,40.94
2024-04-22T14:15:44.855Z,41.50
2024-04-22T14:18:14.885Z,41.91
2024-04-22T14:20:42.016Z,42.68
2024-04-22T14:23:08.649Z,42.92
2024-04-22T14:25:35.788Z,43.39
2024-04-22T14:28:02.619Z,43.79
2024-04-22T14:30:29.333Z,44.30
2024-04-22T14:32:56.197Z,43.99
2024-04-22T14:35:22.921Z,44.00
2024-04-22T14:37:49.681Z,43.83
2024-04-22T14:40:16.455Z,44.31
2024-04-22T14:42:43.148Z,45.72
2024-04-22T14:45:09.943Z,46.88
2024-04-22T14:47:36.654Z,47.82
2024-04-22T14:50:03.363Z,47.97
2024-04-22T14:52:30.056Z,48.26
2024-04-22T14:54:56.780Z,47.31
2024-04-22T14:57:25.088Z,47.34
2024-04-22T14:59:51.703Z,47.35
2024-04-22T15:02:18.366Z,46.31
2024-04-22T15:04:45.356Z,46.78
2024-04-22T15:07:13.238Z,46.37
2024-04-22T15:09:46.759Z,47.48
2024-04-22T15:12:14.498Z,48.48
2024-04-22T15:14:41.627Z,47.37
2024-04-22T15:17:08.874Z,47.58
2024-04-22T15:19:35.694Z,48.20
2024-04-22T15:22:02.564Z,47.34
2024-04-22T15:24:29.218Z,46.78
2024-04-22T15:26:55.952Z,46.83
2024-04-22T15:29:22.608Z,46.93
2024-04-22T15:31:49.350Z,46.54
2024-04-22T15:34:16.083Z,45.70
2024-04-22T15:36:42.871Z,43.63
2024-04-22T15:39:09.670Z,43.33
2024-04-22T15:41:37.699Z,43.54
2024-04-22T15:44:04.730Z,43.01
2024-04-22T15:46:31.601Z,42.84
2024-04-22T15:48:58.308Z,44.68
2024-04-22T15:51:25.287Z,43.45
2024-04-22T15:53:52.132Z,44.00
2024-04-22T15:56:18.933Z,41.78
2024-04-22T15:58:45.711Z,42.35
2024-04-22T16:01:12.604Z,42.39
2024-04-22T16:03:39.565Z,43.18
2024-04-22T16:08:55.727Z,42.57
2024-04-22T16:11:22.408Z,42.10
2024-04-22T16:13:49.274Z,42.25
2024-04-22T16:16:16.067Z,42.92
2024-04-22T16:18:42.804Z,42.18
2024-04-22T16:21:15.286Z,41.63
2024-04-22T16:23:44.072Z,41.73
2024-04-22T16:26:11.453Z,42.17
2024-04-22T16:28:38.502Z,42.62
2024-04-22T16:31:05.263Z,41.39
2024-04-22T16:33:31.924Z,41.29
2024-04-22T16:35:58.810Z,41.44
2024-04-22T16:38:25.832Z,40.92
2024-04-22T16:40:52.521Z,40.45
2024-04-22T16:43:22.806Z,41.20
2024-04-22T16:45:49.526Z,41.24
2024-04-22T16:48:18.406Z,40.78
2024-04-22T16:50:45.866Z,40.69
2024-04-22T16:53:12.616Z,41.41
2024-04-22T16:55:39.834Z,40.14
2024-04-22T16:58:06.789Z,40.53
2024-04-22T17:00:37.674Z,40.27
2024-04-22T17:03:06.946Z,40.65
2024-04-22T17:05:41.027Z,41.04
2024-04-22T17:08:09.142Z,40.58
2024-04-22T17:10:36.428Z,40.47
2024-04-22T17:13:05.293Z,40.38
2024-04-22T17:15:33.329Z,40.93
2024-04-22T17:18:00.694Z,40.71
2024-04-22T17:20:27.476Z,39.82
2024-04-22T17:22:58.124Z,41.04
2024-04-22T17:25:27.871Z,40.78
2024-04-22T17:27:55.989Z,40.15
2024-04-22T17:30:23.046Z,41.19
2024-04-22T17:32:49.782Z,40.79
2024-04-22T17:35:16.581Z,40.66
2024-04-22T17:37:43.778Z,40.62
2024-04-22T17:40:12.022Z,41.39
2024-04-22T17:42:38.732Z,40.99
2024-04-22T17:45:05.902Z,40.85
2024-04-22T17:47:33.237Z,41.52
2024-04-22T17:50:00.155Z,41.58
2024-04-22T17:52:26.971Z,41.90
2024-04-22T17:54:53.750Z,42.45
2024-04-22T17:57:31.022Z,41.72
2024-04-22T17:59:57.764Z,41.36
2024-04-22T18:02:24.809Z,41.28
2024-04-22T18:04:55.463Z,40.90
2024-04-22T18:07:22.758Z,41.54
2024-04-22T18:09:51.321Z,41.85
2024-04-22T18:12:18.253Z,41.87
2024-04-22T18:14:47.855Z,41.66
2024-04-22T18:17:15.007Z,42.54
2024-04-22T18:19:41.722Z,42.98
2024-04-22T18:22:14.106Z,42.55
2024-04-22T18:24:44.417Z,43.23
2024-04-22T18:27:11.033Z,43.22
2024-04-22T18:29:38.102Z,43.31
2024-04-22T18:32:05.057Z,43.40
2024-04-22T18:34:32.581Z,44.08
2024-04-22T18:36:59.286Z,43.82
2024-04-22T18:39:25.949Z,44.93
2024-04-22T18:41:52.695Z,44.96
2024-04-22T18:44:19.853Z,45.38
2024-04-22T18:46:47.139Z,45.08
2024-04-22T18:49:13.934Z,45.08
2024-04-22T18:51:40.590Z,45.36
2024-04-22T18:54:07.238Z,45.70
2024-04-22T18:56:34.019Z,45.59
2024-04-22T18:59:00.732Z,45.56
2024-04-22T19:01:27.728Z,46.15
2024-04-22T19:03:55.084Z,45.98
2024-04-22T19:06:21.743Z,46.02
2024-04-22T19:08:48.482Z,46.56
2024-04-22T19:11:15.563Z,47.34
2024-04-22T19:13:44.680Z,46.91
2024-04-22T19:16:11.563Z,47.05
2024-04-22T19:18:38.307Z,47.18
2024-04-22T19:21:05.170Z,47.33
2024-04-22T19:23:31.776Z,47.20
2024-04-22T19:25:58.475Z,47.63
2024-04-22T19:28:27.551Z,47.92
2024-04-22T19:30:56.652Z,47.59
2024-04-22T19:33:23.766Z,47.98
2024-04-22T19:35:51.707Z,48.30
2024-04-22T19:38:18.502Z,48.35
2024-04-22T19:40:46.362Z,48.42
2024-04-22T19:43:13.246Z,48.77
2024-04-22T19:45:39.901Z,49.11
2024-04-22T19:48:07.204Z,49.19
2024-04-22T19:50:33.922Z,49.49
2024-04-22T19:53:00.616Z,49.38
2024-04-22T19:55:27.619Z,49.70
2024-04-22T19:57:55.028Z,49.49
2024-04-22T20:00:24.738Z,49.87
2024-04-22T20:02:51.455Z,49.92
2024-04-22T20:05:18.259Z,50.14
2024-04-22T20:07:44.990Z,50.68
2024-04-22T20:10:11.646Z,50.54
2024-04-22T20:12:39.796Z,50.89
2024-04-22T20:15:07.963Z,50.85
2024-04-22T20:18:03.685Z,51.22
2024-04-22T20:20:30.735Z,51.45
2024-04-22T20:22:57.792Z,51.76
2024-04-22T20:25:25.201Z,52.04
2024-04-22T20:27:51.888Z,52.16
2024-04-22T20:30:21.564Z,52.21
2024-04-22T20:32:48.510Z,52.39
2024-04-22T20:35:15.269Z,52.42
2024-04-22T20:37:42.127Z,52.57
2024-04-22T20:40:09.009Z,53.09
2024-04-22T20:42:35.765Z,53.08
2024-04-22T20:45:02.477Z,53.43
2024-04-22T20:47:29.230Z,53.50
2024-04-22T20:49:55.965Z,53.99
2024-04-22T20:52:22.731Z,54.39
2024-04-22T20:54:49.382Z,54.54
2024-04-22T20:57:16.368Z,54.44
2024-04-22T20:59:43.148Z,54.61
2024-04-22T21:02:09.900Z,54.64
2024-04-22T21:04:36.671Z,55.10
2024-04-22T21:07:05.199Z,55.20
2024-04-22T21:09:31.880Z,55.69
2024-04-22T21:11:58.664Z,55.75
2024-04-22T21:14:25.368Z,55.75
2024-04-22T21:16:53.137Z,56.08
2024-04-22T21:19:20.824Z,55.99
2024-04-22T21:21:48.434Z,56.43
2024-04-22T21:24:16.283Z,56.68
2024-04-22T21:26:43.431Z,56.69
2024-04-22T21:29:10.252Z,57.12
2024-04-22T21:31:36.905Z,57.20
2024-04-22T21:34:08.631Z,57.44
2024-04-22T21:36:36.704Z,57.07
2024-04-22T21:39:04.032Z,57.78
2024-04-22T21:41:30.765Z,57.91
2024-04-22T21:43:57.777Z,58.13
2024-04-22T21:46:24.609Z,57.86
2024-04-22T21:48:55.204Z,58.28
2024-04-22T21:51:22.215Z,58.54
2024-04-22T21:53:49.160Z,58.48
2024-04-22T21:56:19.592Z,59.07
2024-04-22T21:59:27.670Z,59.05
2024-04-22T22:02:32.056Z,59.11
2024-04-22T22:05:36.555Z,59.67
2024-04-22T22:08:03.324Z,59.72
2024-04-22T22:10:30.247Z,60.00
2024-04-22T22:12:57.174Z,60.21
2024-04-22T22:15:23.878Z,60.77
2024-04-22T22:17:55.130Z,60.92
2024-04-22T22:20:22.610Z,61.03
2024-04-22T22:22:49.365Z,61.68
2024-04-22T22:25:16.079Z,61.64
2024-04-22T22:27:42.734Z,61.90
2024-04-22T22:30:15.323Z,62.03
2024-04-22T22:32:45.938Z,62.07
2024-04-22T22:35:14.211Z,62.25
2024-04-22T22:37:40.959Z,62.10
2024-04-22T22:40:09.090Z,62.72
2024-04-22T22:42:35.942Z,62.74
2024-04-22T22:45:02.553Z,63.15
2024-04-22T22:47:29.281Z,63.17
2024-04-22T22:49:56.066Z,63.51
2024-04-22T22:52:24.188Z,63.23
2024-04-22T22:54:50.884Z,63.54
2024-04-22T22:57:17.605Z,63.44
2024-04-22T22:59:44.219Z,64.04
2024-04-22T23:02:10.927Z,64.07
2024-04-22T23:04:37.687Z,63.97
2024-04-22T23:07:07.549Z,64.27
2024-04-22T23:09:34.171Z,64.37
2024-04-22T23:12:02.123Z,64.37
2024-04-22T23:14:29.331Z,64.64
2024-04-22T23:16:57.276Z,64.77
2024-04-22T23:19:24.209Z,64.97
2024-04-22T23:21:53.390Z,64.81
2024-04-22T23:24:21.445Z,65.39
2024-04-22T23:26:52.079Z,65.25
2024-04-22T23:29:18.902Z,65.55
2024-04-22T23:31:45.625Z,66.01
2024-04-22T23:34:12.357Z,65.80
2024-04-22T23:36:47.520Z,65.77
2024-04-22T23:39:14.374Z,66.00
2024-04-22T23:41:41.426Z,66.22
2024-04-22T23:44:08.074Z,66.69
2024-04-22T23:46:34.731Z,66.67
2024-04-22T23:49:01.440Z,66.48
2024-04-22T23:51:28.083Z,66.72
2024-04-22T23:53:55.541Z,66.98
2024-04-22T23:56:22.499Z,66.86
2024-04-22T23:58:49.115Z,67.33
